createdAt,value
2023-04-19T00:02:25.499Z,102163.50
2023-04-19T00:04:53.100Z,102156.47
2023-04-19T00:07:20.316Z,102156.47
2023-04-19T00:09:46.876Z,102159.78
2023-04-19T00:12:13.331Z,102155.41
2023-04-19T00:14:39.724Z,102161.00
2023-04-19T00:17:06.239Z,102151.63
2023-04-19T00:19:32.910Z,102161.56
2023-04-19T00:21:59.342Z,102158.13
2023-04-19T00:24:25.949Z,102151.47
2023-04-19T00:26:52.341Z,102160.31
2023-04-19T00:29:18.734Z,102162.34
2023-04-19T00:31:45.133Z,102158.22
2023-04-19T00:34:11.521Z,102152.06
2023-04-19T00:36:37.978Z,102145.28
2023-04-19T00:39:06.460Z,102156.41
2023-04-19T00:41:32.835Z,102145.50
2023-04-19T00:43:59.207Z,102152.34
2023-04-19T00:46:26.473Z,102141.97
2023-04-19T00:48:53.568Z,102146.59
2023-04-19T00:51:20.395Z,102147.63
2023-04-19T00:53:46.939Z,102145.16
2023-04-19T00:56:14.651Z,102136.34
2023-04-19T00:58:41.260Z,102139.91
2023-04-19T01:01:09.040Z,102134.69
2023-04-19T01:03:36.450Z,102146.25
2023-04-19T01:06:03.128Z,102146.16
2023-04-19T01:08:29.526Z,102147.94
2023-04-19T01:10:55.885Z,102132.88
2023-04-19T01:13:22.347Z,102134.75
2023-04-19T01:15:48.953Z,102142.84
2023-04-19T01:18:15.789Z,102138.44
2023-04-19T01:20:42.529Z,102133.75
2023-04-19T01:23:11.490Z,102130.91
2023-04-19T01:25:38.744Z,102131.28
2023-04-19T01:28:05.814Z,102124.84
2023-04-19T01:30:32.692Z,102129.47
2023-04-19T01:32:59.178Z,102123.41
2023-04-19T01:35:25.716Z,102119.97
2023-04-19T01:37:55.383Z,102122.59
2023-04-19T01:40:25.736Z,102124.91
2023-04-19T01:42:52.441Z,102125.50
2023-04-19T01:45:18.960Z,102123.69
2023-04-19T01:47:45.440Z,102121.00
2023-04-19T01:50:11.818Z,102115.66
2023-04-19T01:52:38.245Z,102113.75
2023-04-19T01:55:05.506Z,102110.22
2023-04-19T01:57:31.941Z,102115.88
2023-04-19T01:59:58.350Z,102116.50
2023-04-19T02:02:24.957Z,102115.28
2023-04-19T02:04:51.490Z,102115.25
2023-04-19T02:07:17.873Z,102115.28
2023-04-19T02:09:44.344Z,102111.66
2023-04-19T02:12:11.861Z,102117.09
2023-04-19T02:14:38.224Z,102110.75
2023-04-19T02:17:04.650Z,102112.41
2023-04-19T02:19:31.362Z,102118.91
2023-04-19T02:21:57.986Z,102116.75
2023-04-19T02:24:25.174Z,102111.16
2023-04-19T02:26:51.855Z,102109.50
2023-04-19T02:29:18.627Z,102117.69
2023-04-19T02:31:46.300Z,102122.31
2023-04-19T02:34:13.017Z,102129.56
2023-04-19T02:36:39.506Z,102116.97
2023-04-19T02:39:05.962Z,102117.09
2023-04-19T02:41:32.328Z,102129.50
2023-04-19T02:44:01.466Z,102125.88
2023-04-19T02:46:27.902Z,102121.66
2023-04-19T02:48:54.297Z,102125.06
2023-04-19T02:51:20.744Z,102126.81
2023-04-19T02:53:47.164Z,102126.88
2023-04-19T02:56:13.587Z,102126.94
2023-04-19T02:58:40.285Z,102123.00
2023-04-19T03:01:07.083Z,102118.91
2023-04-19T03:03:33.606Z,102115.66
2023-04-19T03:06:00.330Z,102112.09
2023-04-19T03:08:27.860Z,102118.25
2023-04-19T03:10:54.793Z,102120.06
2023-04-19T03:13:21.231Z,102110.66
2023-04-19T03:15:48.448Z,102106.09
2023-04-19T03:18:17.169Z,102107.66
2023-04-19T03:20:43.707Z,102108.69
2023-04-19T03:23:10.748Z,102105.31
2023-04-19T03:25:37.199Z,102103.22
2023-04-19T03:28:26.616Z,102103.22
2023-04-19T03:31:16.476Z,102096.84
2023-04-19T03:33:44.067Z,102103.22
2023-04-19T03:36:12.716Z,102096.06
2023-04-19T03:38:41.994Z,102093.38
2023-04-19T03:41:19.949Z,102097.97
2023-04-19T03:43:47.593Z,102095.03
2023-04-19T03:46:13.992Z,102094.38
2023-04-19T03:48:40.647Z,102081.50
2023-04-19T03:51:07.298Z,102091.50
2023-04-19T03:53:34.325Z,102093.56
2023-04-19T03:56:00.839Z,102093.53
2023-04-19T03:58:28.016Z,102095.53
2023-04-19T04:01:01.267Z,102091.88
2023-04-19T04:03:27.931Z,102094.66
2023-04-19T04:05:54.487Z,102097.19
2023-04-19T04:08:20.884Z,102097.31
2023-04-19T04:10:47.396Z,102101.31
2023-04-19T04:13:14.588Z,102099.75
2023-04-19T04:15:48.850Z,102099.97
2023-04-19T04:18:17.308Z,102099.22
2023-04-19T04:20:44.599Z,102095.81
2023-04-19T04:23:11.968Z,102106.75
2023-04-19T04:25:42.967Z,102107.78
2023-04-19T04:28:12.196Z,102100.34
2023-04-19T04:30:40.506Z,102104.16
2023-04-19T04:33:08.582Z,102107.97
2023-04-19T04:35:35.139Z,102107.72
2023-04-19T04:38:17.532Z,102101.75
2023-04-19T04:40:53.580Z,102101.16
2023-04-19T04:43:21.726Z,102103.16
2023-04-19T04:45:48.430Z,102109.66
2023-04-19T04:48:15.304Z,102104.50
2023-04-19T04:50:42.089Z,102104.03
2023-04-19T04:53:08.745Z,102105.78
2023-04-19T04:55:36.341Z,102094.63
2023-04-19T04:58:05.044Z,102098.50
2023-04-19T05:00:49.863Z,102109.38
2023-04-19T05:03:16.870Z,102105.91
2023-04-19T05:05:48.763Z,102110.44
2023-04-19T05:08:16.761Z,102112.13
2023-04-19T05:10:43.608Z,102106.88
2023-04-19T05:13:12.019Z,102111.50
2023-04-19T05:15:39.817Z,102107.81
2023-04-19T05:18:06.531Z,102113.53
2023-04-19T05:20:33.893Z,102111.00
2023-04-19T05:23:08.053Z,102109.25
2023-04-19T05:25:34.713Z,102126.06
2023-04-19T05:28:01.249Z,102119.72
2023-04-19T05:30:33.198Z,102117.34
2023-04-19T05:33:00.892Z,102118.06
2023-04-19T05:35:27.356Z,102119.72
2023-04-19T05:37:54.501Z,102119.50
2023-04-19T05:40:20.955Z,102122.91
2023-04-19T05:42:47.314Z,102118.75
2023-04-19T05:45:15.584Z,102114.16
2023-04-19T05:47:42.319Z,102116.59
2023-04-19T05:50:33.214Z,102120.00
2023-04-19T05:53:19.856Z,102115.88
2023-04-19T05:55:48.020Z,102120.94
2023-04-19T05:58:14.498Z,102120.03
2023-04-19T06:00:41.439Z,102119.13
2023-04-19T06:03:12.055Z,102119.63
2023-04-19T06:05:40.301Z,102127.28
2023-04-19T06:08:07.084Z,102132.09
2023-04-19T06:10:44.546Z,102119.81
2023-04-19T06:13:19.528Z,102115.53
2023-04-19T06:15:47.527Z,102122.19
2023-04-19T06:18:19.426Z,102116.59
2023-04-19T06:20:46.934Z,102125.59
2023-04-19T06:23:14.633Z,102123.19
2023-04-19T06:25:41.096Z,102129.13
2023-04-19T06:28:07.488Z,102131.22
2023-04-19T06:30:33.868Z,102133.13
2023-04-19T06:33:00.285Z,102123.50
2023-04-19T06:35:26.664Z,102131.94
2023-04-19T06:37:53.055Z,102124.97
2023-04-19T06:40:19.572Z,102128.81
2023-04-19T06:42:46.053Z,102131.97
2023-04-19T06:45:12.600Z,102122.09
2023-04-19T06:47:38.998Z,102116.75
2023-04-19T06:50:06.117Z,102129.28
2023-04-19T06:52:32.459Z,102123.59
2023-04-19T06:54:59.049Z,102126.44
2023-04-19T06:57:26.000Z,102119.34
2023-04-19T06:59:54.656Z,102111.34
2023-04-19T07:02:21.236Z,102121.97
2023-04-19T07:04:48.094Z,102125.09
2023-04-19T07:07:14.651Z,102118.00
2023-04-19T07:09:41.024Z,102116.34
2023-04-19T07:12:07.582Z,102114.47
2023-04-19T07:14:34.310Z,102121.06
2023-04-19T07:17:00.819Z,102125.84
2023-04-19T07:19:28.922Z,102127.72
2023-04-19T07:21:55.305Z,102123.53
2023-04-19T07:24:21.757Z,102123.75
2023-04-19T07:26:48.136Z,102121.16
2023-04-19T07:29:14.597Z,102125.28
2023-04-19T07:31:41.872Z,102112.97
2023-04-19T07:34:08.845Z,102131.16
2023-04-19T07:36:36.906Z,102123.28
2023-04-19T07:39:04.702Z,102125.13
2023-04-19T07:41:32.529Z,102129.91
2023-04-19T07:43:58.957Z,102130.13
2023-04-19T07:46:25.595Z,102123.47
2023-04-19T07:48:51.989Z,102124.78
2023-04-19T07:51:19.301Z,102126.28
2023-04-19T07:53:47.389Z,102126.66
2023-04-19T07:56:14.257Z,102125.19
2023-04-19T07:58:41.286Z,102122.75
2023-04-19T08:01:07.962Z,102124.34
2023-04-19T08:03:35.231Z,102126.50
2023-04-19T08:06:03.090Z,102125.09
2023-04-19T08:08:29.473Z,102125.91
2023-04-19T08:10:55.849Z,102127.47
2023-04-19T08:13:22.541Z,102120.66
2023-04-19T08:18:19.046Z,102126.81
2023-04-19T08:20:48.597Z,102116.16
2023-04-19T08:23:24.011Z,102129.38
2023-04-19T08:25:54.184Z,102128.59
2023-04-19T08:28:20.573Z,102132.53
2023-04-19T08:30:47.017Z,102131.66
2023-04-19T08:33:13.487Z,102124.19
2023-04-19T08:35:41.799Z,102130.34
2023-04-19T08:38:08.766Z,102124.81
2023-04-19T08:40:35.626Z,102126.88
2023-04-19T08:43:06.389Z,102128.13
2023-04-19T08:45:33.227Z,102129.56
2023-04-19T08:48:02.335Z,102134.41
2023-04-19T08:50:35.938Z,102132.22
2023-04-19T08:53:23.890Z,102115.59
2023-04-19T08:58:33.238Z,102108.47
2023-04-19T09:01:12.869Z,102118.72
2023-04-19T09:04:02.379Z,102108.63
2023-04-19T09:06:40.618Z,102118.25
2023-04-19T09:11:47.321Z,102109.41
2023-04-19T09:14:16.317Z,102116.59
2023-04-19T09:16:45.203Z,102104.75
2023-04-19T09:19:24.052Z,102104.78
2023-04-19T09:21:53.819Z,102113.31
2023-04-19T09:25:04.425Z,102106.41
2023-04-19T09:27:32.185Z,102094.78
2023-04-19T09:30:01.132Z,102103.69
2023-04-19T09:32:29.162Z,102098.91
2023-04-19T09:34:57.685Z,102101.09
2023-04-19T09:37:39.248Z,102093.97
2023-04-19T09:40:27.714Z,102105.59
2023-04-19T09:43:08.688Z,102108.69
2023-04-19T09:45:46.261Z,102102.34
2023-04-19T09:48:13.241Z,102093.06
2023-04-19T09:51:02.385Z,102100.13
2023-04-19T09:53:35.314Z,102095.88
2023-04-19T09:56:03.340Z,102088.97
2023-04-19T09:58:41.507Z,102090.22
2023-04-19T10:01:17.259Z,102082.75
2023-04-19T10:03:50.391Z,102092.94
2023-04-19T10:08:50.803Z,102073.34
2023-04-19T10:11:20.280Z,102075.75
2023-04-19T10:13:48.747Z,102077.03
2023-04-19T10:16:19.472Z,102078.59
2023-04-19T10:18:49.847Z,102070.66
2023-04-19T10:21:16.847Z,102072.25
2023-04-19T10:23:43.228Z,102068.34
2023-04-19T10:26:09.576Z,102071.72
2023-04-19T10:28:36.554Z,102068.59
2023-04-19T10:31:04.872Z,102063.72
2023-04-19T10:33:35.817Z,102054.38
2023-04-19T10:36:02.750Z,102052.75
2023-04-19T10:38:37.321Z,102052.75
2023-04-19T10:41:04.350Z,102045.47
2023-04-19T10:43:34.330Z,102050.41
2023-04-19T10:46:09.722Z,102047.41
2023-04-19T10:48:38.874Z,102050.34
2023-04-19T10:51:14.439Z,102053.78
2023-04-19T10:54:01.494Z,102054.44
2023-04-19T10:56:33.903Z,102046.44
2023-04-19T10:59:00.412Z,102040.22
2023-04-19T11:02:01.084Z,102028.63
2023-04-19T11:04:30.655Z,102028.31
2023-04-19T11:07:05.832Z,102016.91
2023-04-19T11:09:35.894Z,102020.53
2023-04-19T11:12:04.821Z,102025.50
2023-04-19T11:14:37.080Z,102010.22
2023-04-19T11:17:15.517Z,102011.38
2023-04-19T11:20:11.721Z,102006.34
2023-04-19T11:22:39.360Z,102003.97
2023-04-19T11:25:19.237Z,101992.16
2023-04-19T11:27:47.980Z,102000.50
2023-04-19T11:30:19.994Z,101989.19
2023-04-19T11:32:48.255Z,102004.47
2023-04-19T11:35:15.803Z,101998.72
2023-04-19T11:37:42.261Z,101985.84
2023-04-19T11:40:09.414Z,101987.38
2023-04-19T11:42:36.082Z,101984.22
2023-04-19T11:45:03.019Z,101988.81
2023-04-19T11:47:29.589Z,101982.97
2023-04-19T11:49:58.839Z,101978.84
2023-04-19T11:52:26.318Z,101971.03
2023-04-19T11:54:53.830Z,101968.81
2023-04-19T11:57:31.194Z,101957.06
2023-04-19T12:00:12.296Z,101959.88
2023-04-19T12:02:40.984Z,101952.06
2023-04-19T12:05:13.177Z,101948.97
2023-04-19T12:08:05.517Z,101949.56
2023-04-19T12:10:32.509Z,101943.16
2023-04-19T12:12:59.320Z,101939.31
2023-04-19T12:15:45.752Z,101947.34
2023-04-19T12:18:12.694Z,101944.78
2023-04-19T12:20:44.722Z,101926.25
2023-04-19T12:23:13.792Z,101932.25
2023-04-19T12:25:41.213Z,101920.59
2023-04-19T12:28:07.848Z,101923.31
2023-04-19T12:30:36.282Z,101936.31
2023-04-19T12:33:03.278Z,101921.06
2023-04-19T12:35:30.175Z,101923.41
2023-04-19T12:37:59.165Z,101913.81
2023-04-19T12:40:27.035Z,101910.06
2023-04-19T12:42:53.891Z,101909.41
2023-04-19T12:45:20.627Z,101929.25
2023-04-19T12:47:48.360Z,101916.72
2023-04-19T12:50:15.988Z,101915.84
2023-04-19T12:52:43.076Z,101913.63
2023-04-19T12:55:09.688Z,101894.00
2023-04-19T12:57:36.061Z,101902.72
2023-04-19T13:00:02.445Z,101894.78
2023-04-19T13:02:28.978Z,101885.78
2023-04-19T13:04:55.655Z,101888.38
2023-04-19T13:07:22.110Z,101890.63
2023-04-19T13:09:48.463Z,101883.41
2023-04-19T13:12:14.857Z,101887.09
2023-04-19T13:14:41.249Z,101874.28
2023-04-19T13:17:07.802Z,101867.31
2023-04-19T13:19:34.160Z,101869.69
2023-04-19T13:22:00.549Z,101862.19
2023-04-19T13:24:26.896Z,101857.56
2023-04-19T13:26:53.390Z,101855.97
2023-04-19T13:29:19.789Z,101856.50
2023-04-19T13:31:47.022Z,101851.28
2023-04-19T13:34:13.640Z,101848.19
2023-04-19T13:36:41.006Z,101858.47
2023-04-19T13:39:08.512Z,101839.53
2023-04-19T13:41:36.344Z,101840.13
2023-04-19T13:44:02.937Z,101834.53
2023-04-19T13:46:29.623Z,101827.81
2023-04-19T13:48:56.043Z,101819.72
2023-04-19T13:51:22.447Z,101831.59
2023-04-19T13:53:48.795Z,101825.03
2023-04-19T13:56:15.302Z,101819.72
2023-04-19T13:58:41.680Z,101815.41
2023-04-19T14:01:08.090Z,101822.19
2023-04-19T14:03:34.877Z,101801.72
2023-04-19T14:06:01.495Z,101802.78
2023-04-19T14:08:27.957Z,101800.28
2023-04-19T14:10:54.315Z,101806.03
2023-04-19T14:13:20.788Z,101806.81
2023-04-19T14:15:47.208Z,101795.03
2023-04-19T14:18:13.574Z,101795.47
2023-04-19T14:20:40.109Z,101783.75
2023-04-19T14:23:07.210Z,101775.22
2023-04-19T14:25:33.942Z,101764.84
2023-04-19T14:28:00.372Z,101776.78
2023-04-19T14:30:27.268Z,101773.22
2023-04-19T14:32:54.541Z,101777.88
2023-04-19T14:35:21.175Z,101769.53
2023-04-19T14:37:47.586Z,101760.22
2023-04-19T14:40:14.003Z,101755.97
2023-04-19T14:42:40.525Z,101742.25
2023-04-19T14:45:07.576Z,101747.34
2023-04-19T14:47:34.288Z,101746.38
2023-04-19T14:50:00.726Z,101753.16
2023-04-19T14:52:27.223Z,101745.50
2023-04-19T14:54:54.022Z,101738.66
2023-04-19T14:57:20.695Z,101740.03
2023-04-19T14:59:47.114Z,101737.44
2023-04-19T15:02:13.879Z,101735.09
2023-04-19T15:04:41.553Z,101725.22
2023-04-19T15:07:08.307Z,101725.94
2023-04-19T15:09:34.679Z,101731.47
2023-04-19T15:12:01.785Z,101728.69
2023-04-19T15:14:28.291Z,101732.56
2023-04-19T15:16:54.683Z,101740.59
2023-04-19T15:19:21.119Z,101728.59
2023-04-19T15:21:47.470Z,101724.38
2023-04-19T15:24:13.861Z,101724.94
2023-04-19T15:26:42.256Z,101726.03
2023-04-19T15:29:10.616Z,101720.50
2023-04-19T15:31:37.013Z,101723.63
2023-04-19T15:34:03.659Z,101712.94
2023-04-19T15:36:30.182Z,101707.72
2023-04-19T15:38:57.051Z,101710.88
2023-04-19T15:41:23.621Z,101720.22
2023-04-19T15:43:49.991Z,101710.47
2023-04-19T15:46:17.478Z,101719.59
2023-04-19T15:48:45.134Z,101715.06
2023-04-19T15:51:11.534Z,101709.22
2023-04-19T15:53:38.084Z,101707.03
2023-04-19T15:56:05.331Z,101704.09
2023-04-19T15:58:31.743Z,101705.53
2023-04-19T16:00:58.129Z,101699.25
2023-04-19T16:03:24.662Z,101709.72
2023-04-19T16:05:51.587Z,101698.59
2023-04-19T16:08:21.935Z,101711.78
2023-04-19T16:10:49.274Z,101700.75
2023-04-19T16:13:16.558Z,101697.16
2023-04-19T16:15:44.757Z,101692.50
2023-04-19T16:18:12.933Z,101695.22
2023-04-19T16:20:40.412Z,101687.81
2023-04-19T16:23:06.817Z,101692.00
2023-04-19T16:25:34.066Z,101697.66
2023-04-19T16:28:00.888Z,101706.50
2023-04-19T16:30:27.420Z,101703.16
2023-04-19T16:32:55.503Z,101691.97
2023-04-19T16:35:22.875Z,101697.66
2023-04-19T16:37:49.361Z,101692.50
2023-04-19T16:40:16.004Z,101702.28
2023-04-19T16:42:42.478Z,101708.25
2023-04-19T16:45:09.359Z,101694.69
2023-04-19T16:47:36.164Z,101698.72
2023-04-19T16:50:04.599Z,101705.69
2023-04-19T16:52:33.078Z,101702.13
2023-04-19T16:54:59.977Z,101698.78
2023-04-19T16:57:26.556Z,101693.16
2023-04-19T16:59:52.928Z,101687.16
2023-04-19T17:02:19.697Z,101701.47
2023-04-19T17:04:46.402Z,101695.00
2023-04-19T17:07:13.018Z,101689.69
2023-04-19T17:09:39.463Z,101691.66
2023-04-19T17:12:06.349Z,101693.56
2023-04-19T17:14:34.758Z,101695.63
2023-04-19T17:17:01.650Z,101688.19
2023-04-19T17:19:28.038Z,101693.03
2023-04-19T17:21:54.489Z,101691.50
2023-04-19T17:24:20.890Z,101690.19
2023-04-19T17:26:47.285Z,101701.75
2023-04-19T17:29:13.629Z,101698.88
2023-04-19T17:31:40.183Z,101695.44
2023-04-19T17:34:06.606Z,101688.88
2023-04-19T17:36:32.990Z,101692.31
2023-04-19T17:38:59.353Z,101700.25
2023-04-19T17:41:25.805Z,101705.66
2023-04-19T17:43:52.221Z,101705.00
2023-04-19T17:46:19.130Z,101707.41
2023-04-19T17:48:46.373Z,101701.25
2023-04-19T17:51:12.777Z,101698.03
2023-04-19T17:53:41.680Z,101705.09
2023-04-19T17:56:08.211Z,101710.19
2023-04-19T17:58:36.329Z,101714.34
2023-04-19T18:01:06.593Z,101709.25
2023-04-19T18:03:33.251Z,101708.84
2023-04-19T18:05:59.728Z,101703.69
2023-04-19T18:08:26.168Z,101706.19
2023-04-19T18:10:52.590Z,101704.47
2023-04-19T18:13:18.983Z,101698.91
2023-04-19T18:15:45.610Z,101710.31
2023-04-19T18:18:12.023Z,101708.00
2023-04-19T18:20:38.424Z,101708.00
2023-04-19T18:23:04.766Z,101709.41
2023-04-19T18:25:31.169Z,101712.94
2023-04-19T18:27:57.516Z,101707.63
2023-04-19T18:30:23.919Z,101716.97
2023-04-19T18:32:50.468Z,101720.03
2023-04-19T18:35:16.939Z,101723.84
2023-04-19T18:37:43.296Z,101721.75
2023-04-19T18:40:10.627Z,101731.38
2023-04-19T18:42:36.977Z,101726.66
2023-04-19T18:45:04.185Z,101718.50
2023-04-19T18:47:30.912Z,101723.72
2023-04-19T18:50:05.113Z,101724.66
2023-04-19T18:52:32.946Z,101729.25
2023-04-19T18:54:59.461Z,101732.91
2023-04-19T18:57:27.356Z,101734.13
2023-04-19T18:59:55.997Z,101734.13
2023-04-19T19:02:22.573Z,101740.06
2023-04-19T19:04:57.016Z,101731.63
2023-04-19T19:07:36.323Z,101735.69
2023-04-19T19:10:16.740Z,101739.66
2023-04-19T19:12:44.535Z,101743.44
2023-04-19T19:15:11.058Z,101746.81
2023-04-19T19:17:38.079Z,101742.31
2023-04-19T19:20:06.533Z,101743.22
2023-04-19T19:22:33.207Z,101748.22
2023-04-19T19:25:00.143Z,101751.63
2023-04-19T19:27:26.638Z,101751.63
2023-04-19T19:29:53.018Z,101753.81
2023-04-19T19:32:19.697Z,101752.00
2023-04-19T19:34:55.470Z,101749.22
2023-04-19T19:37:22.961Z,101747.91
2023-04-19T19:39:49.712Z,101751.03
2023-04-19T19:42:17.571Z,101744.13
2023-04-19T19:44:44.308Z,101750.91
2023-04-19T19:47:11.220Z,101756.84
2023-04-19T19:52:07.405Z,101752.59
2023-04-19T19:54:33.884Z,101753.16
2023-04-19T19:57:57.318Z,101760.03
2023-04-19T19:59:54.294Z,101761.69
2023-04-19T20:02:22.353Z,101754.50
2023-04-19T20:04:49.431Z,101759.94
2023-04-19T20:09:45.570Z,101758.47
2023-04-19T20:12:13.420Z,101765.13
2023-04-19T20:14:40.363Z,101766.34
2023-04-19T20:17:06.783Z,101765.31
2023-04-19T20:19:33.134Z,101761.84
2023-04-19T20:22:00.372Z,101755.06
2023-04-19T20:24:26.958Z,101754.38
2023-04-19T20:26:53.320Z,101759.72
2023-04-19T20:29:19.676Z,101765.72
2023-04-19T20:31:46.290Z,101762.78
2023-04-19T20:34:12.710Z,101763.28
2023-04-19T20:36:40.261Z,101763.56
2023-04-19T20:39:09.306Z,101761.75
2023-04-19T20:41:35.863Z,101763.72
2023-04-19T20:44:02.275Z,101758.59
2023-04-19T20:46:28.662Z,101760.78
2023-04-19T20:48:55.026Z,101775.31
2023-04-19T20:51:21.411Z,101766.34
2023-04-19T20:53:47.725Z,101756.16
2023-04-19T20:56:14.057Z,101764.28
2023-04-19T20:58:40.518Z,101764.38
2023-04-19T21:01:06.900Z,101762.00
2023-04-19T21:03:33.523Z,101760.28
2023-04-19T21:06:00.273Z,101763.06
2023-04-19T21:08:26.676Z,101765.75
2023-04-19T21:10:53.024Z,101755.16
2023-04-19T21:13:19.372Z,101753.94
2023-04-19T21:15:45.775Z,101754.84
2023-04-19T21:18:12.116Z,101764.53
2023-04-19T21:20:39.323Z,101762.97
2023-04-19T21:23:05.835Z,101754.00
2023-04-19T21:25:32.197Z,101756.88
2023-04-19T21:27:58.585Z,101756.09
2023-04-19T21:30:25.697Z,101759.00
2023-04-19T21:32:52.434Z,101753.50
2023-04-19T21:35:19.460Z,101754.75
2023-04-19T21:37:45.850Z,101754.09
2023-04-19T21:40:12.494Z,101753.00
2023-04-19T21:42:38.840Z,101740.88
2023-04-19T21:45:05.999Z,101747.22
2023-04-19T21:47:32.387Z,101740.75
2023-04-19T21:49:58.836Z,101740.00
2023-04-19T21:52:25.281Z,101739.78
2023-04-19T21:54:51.616Z,101738.50
2023-04-19T21:57:21.787Z,101739.78
2023-04-19T21:59:48.176Z,101729.97
2023-04-19T22:02:14.633Z,101738.72
2023-04-19T22:04:41.563Z,101723.88
2023-04-19T22:07:08.061Z,101723.94
2023-04-19T22:09:34.791Z,101733.84
2023-04-19T22:12:01.526Z,101740.06
2023-04-19T22:14:28.212Z,101734.03
2023-04-19T22:16:54.899Z,101733.28
2023-04-19T22:19:23.177Z,101728.84
2023-04-19T22:21:49.688Z,101723.88
2023-04-19T22:24:16.467Z,101734.69
2023-04-19T22:26:42.853Z,101723.72
2023-04-19T22:29:09.226Z,101722.16
2023-04-19T22:31:35.832Z,101723.94
2023-04-19T22:34:02.980Z,101718.25
2023-04-19T22:36:29.369Z,101719.91
2023-04-19T22:38:55.760Z,101709.56
2023-04-19T22:41:22.117Z,101709.44
2023-04-19T22:43:48.474Z,101707.84
2023-04-19T22:46:14.983Z,101705.38
2023-04-19T22:48:41.534Z,101704.66
2023-04-19T22:51:07.923Z,101699.19
2023-04-19T22:53:34.276Z,101695.78
2023-04-19T22:56:00.742Z,101698.38
2023-04-19T22:58:27.117Z,101690.66
2023-04-19T23:00:53.502Z,101684.75
2023-04-19T23:03:19.878Z,101684.94
2023-04-19T23:05:47.137Z,101686.66
2023-04-19T23:08:15.096Z,101677.31
2023-04-19T23:10:42.391Z,101677.75
2023-04-19T23:13:10.948Z,101673.28
2023-04-19T23:15:38.343Z,101669.09
2023-04-19T23:18:05.187Z,101669.81
2023-04-19T23:20:31.988Z,101666.28
2023-04-19T23:22:58.893Z,101657.69
2023-04-19T23:25:25.598Z,101649.03
2023-04-19T23:27:52.008Z,101645.75
2023-04-19T23:30:19.303Z,101646.72
2023-04-19T23:32:45.797Z,101646.97
2023-04-19T23:35:12.310Z,101639.97
2023-04-19T23:37:39.260Z,101645.31
2023-04-19T23:40:06.325Z,101645.38
2023-04-19T23:42:32.711Z,101641.03
2023-04-19T23:44:59.320Z,101633.78
2023-04-19T23:47:25.873Z,101641.19
2023-04-19T23:49:52.207Z,101629.06
2023-04-19T23:52:18.645Z,101631.06
2023-04-19T23:54:45.142Z,101624.88
2023-04-19T23:57:11.467Z,101613.41
2023-04-19T23:59:37.888Z,101612.41
